Time;durP1;ratioP1;P1;durP2;ratioP2;P2;SDS_P1;SDS_P2;PMS_P1;PMS_P2;Temp;Humidity;BMP_temperature;BMP_pressure;BME280_temperature;BME280_humidity;BME280_pressure;Samples;Min_cycle;Max_cycle;Signal;HPM_P1;HPM_P2
2023/06/06 00:07:47;;;;;;;;;;;;;;;14.05;82.59;102265.56;21210908;27;19924;-63
2023/06/06 00:18:10;;;;;;;;;;;;;;;14.07;83.61;102255.09;21202587;27;20278;-64
2023/06/06 00:28:32;;;;;;;;;;;;;;;14.05;83.87;102256.88;21204472;27;19924;-64
2023/06/06 00:38:53;;;;;;;;;;;;;;;14.03;84.25;102262.13;21215864;27;20529;-63
2023/06/06 00:49:15;;;;;;;;;;;;;;;14.02;84.79;102259.56;21213523;27;19927;-64
2023/06/06 00:59:38;;;;;;;;;;;;;;;13.96;84.69;102259.69;21222128;27;20472;-64
2023/06/06 01:09:59;;;;;;;;;;;;;;;13.92;84.98;102245.00;21219224;27;19923;-64
2023/06/06 01:20:23;;;;;;;;;;;;;;;13.88;85.82;102245.97;21201969;27;19930;-63
2023/06/06 01:30:45;;;;;;;;;;;;;;;13.82;85.31;102240.91;21212531;27;19924;-64
2023/06/06 01:41:09;;;;;;;;;;;;;;;13.81;86.17;102244.38;21203546;27;20388;-64
2023/06/06 01:51:31;;;;;;;;;;;;;;;13.80;86.62;102242.66;21204530;27;19927;-64
2023/06/06 02:01:52;;;;;;;;;;;;;;;13.74;87.27;102242.78;21220313;27;19944;-64
2023/06/06 02:12:14;;;;;;;;;;;;;;;13.70;87.11;102241.13;21211695;27;20171;-64
2023/06/06 02:22:35;;;;;;;;;;;;;;;13.69;88.06;102249.84;21214778;27;19933;-64
2023/06/06 02:32:57;;;;;;;;;;;;;;;13.68;88.17;102238.56;21209818;27;19979;-64
2023/06/06 02:43:18;;;;;;;;;;;;;;;13.60;88.69;102245.69;21229885;27;19931;-64
2023/06/06 02:53:40;;;;;;;;;;;;;;;13.64;89.16;102238.66;21233104;27;19924;-64
2023/06/06 03:04:03;;;;;;;;;;;;;;;13.62;89.17;102238.72;21221953;27;19948;-64
2023/06/06 03:14:24;;;;;;;;;;;;;;;13.59;90.27;102243.09;21218119;27;19934;-64
2023/06/06 03:24:46;;;;;;;;;;;;;;;13.57;90.74;102234.47;21230583;27;19928;-64
2023/06/06 03:35:08;;;;;;;;;;;;;;;13.59;90.96;102238.75;21216027;27;19991;-64
2023/06/06 03:45:29;;;;;;;;;;;;;;;13.67;91.32;102242.06;21202497;27;20405;-64
2023/06/06 03:55:51;;;;;;;;;;;;;;;13.70;90.03;102243.72;21220211;27;19958;-64
2023/06/06 04:06:14;;;;;;;;;;;;;;;13.72;91.16;102250.63;21206160;27;19924;-64
2023/06/06 04:16:37;;;;;;;;;;;;;;;13.75;90.63;102265.34;21223599;27;19938;-64
2023/06/06 04:27:03;;;;;;;;;;;;;;;13.83;90.37;102248.66;21217332;27;20030;-63
2023/06/06 04:37:25;;;;;;;;;;;;;;;13.94;90.30;102251.91;21220663;27;19934;-63
2023/06/06 04:47:46;;;;;;;;;;;;;;;14.07;90.17;102262.91;21500048;22;19924;-59
2023/06/06 04:58:08;;;;;;;;;;;;;;;14.15;89.62;102248.00;20965067;28;19930;-59
2023/06/06 05:08:31;;;;;;;;;;;;;;;14.25;88.66;102246.88;20981481;28;19939;-58
2023/06/06 05:18:53;;;;;;;;;;;;;;;14.38;88.67;102248.34;20955347;28;19956;-58
2023/06/06 05:29:16;;;;;;;;;;;;;;;14.55;89.52;102250.56;20979203;28;19928;-58
2023/06/06 05:39:37;;;;;;;;;;;;;;;14.67;87.43;102251.13;20961345;28;19928;-58
2023/06/06 05:49:59;;;;;;;;;;;;;;;14.85;85.85;102253.28;20970759;28;20299;-59
2023/06/06 06:00:20;;;;;;;;;;;;;;;15.06;85.06;102257.97;20978263;28;19975;-59
2023/06/06 06:10:42;;;;;;;;;;;;;;;15.25;84.87;102254.91;20963337;28;19931;-59
2023/06/06 06:21:04;;;;;;;;;;;;;;;15.45;83.18;102258.72;20956598;28;19967;-60
2023/06/06 06:31:27;;;;;;;;;;;;;;;15.66;82.46;102260.72;20964750;28;22869;-60
2023/06/06 06:41:52;;;;;;;;;;;;;;;15.95;82.70;102265.13;20964810;28;19925;-60
2023/06/06 06:52:16;;;;;;;;;;;;;;;16.22;80.70;102264.31;20976074;28;19924;-60
2023/06/06 07:02:39;;;;;;;;;;;;;;;16.43;79.59;102265.38;20962436;28;19924;-60
2023/06/06 07:13:01;;;;;;;;;;;;;;;16.55;77.71;102268.53;20972969;28;19924;-60
2023/06/06 07:23:22;;;;;;;;;;;;;;;16.87;79.66;102270.97;20950844;28;19925;-60
2023/06/06 07:33:44;;;;;;;;;;;;;;;17.07;78.83;102265.91;20972202;28;19968;-60
2023/06/06 07:44:07;;;;;;;;;;;;;;;17.21;77.96;102275.06;20967772;28;19967;-59
2023/06/06 07:54:28;;;;;;;;;;;;;;;17.32;78.22;102262.47;20986380;28;20388;-60
2023/06/06 08:04:50;;;;;;;;;;;;;;;17.53;77.43;102256.50;20981339;28;19925;-60
2023/06/06 08:15:13;;;;;;;;;;;;;;;17.75;76.76;102253.06;20965474;28;19924;-60
2023/06/06 08:25:38;;;;;;;;;;;;;;;17.79;75.24;102248.56;20952748;28;19940;-60
2023/06/06 08:35:59;;;;;;;;;;;;;;;18.04;75.58;102249.31;20967926;28;19940;-60
2023/06/06 08:46:31;;;;;;;;;;;;;;;18.24;73.71;102236.31;20979515;28;20019;-60
2023/06/06 08:56:56;;;;;;;;;;;;;;;18.33;74.06;102235.94;20984260;28;19961;-60
2023/06/06 09:07:18;;;;;;;;;;;;;;;18.53;72.54;102243.06;20974820;28;19928;-60
2023/06/06 09:17:41;;;;;;;;;;;;;;;18.72;73.29;102244.88;20968278;28;19924;-61
2023/06/06 09:28:03;;;;;;;;;;;;;;;19.03;72.92;102247.94;20971489;28;19932;-61
2023/06/06 09:38:28;;;;;;;;;;;;;;;19.16;71.63;102236.91;20973395;28;20003;-61
2023/06/06 09:48:58;;;;;;;;;;;;;;;19.39;72.04;102239.44;20944949;28;19960;-61
2023/06/06 09:59:21;;;;;;;;;;;;;;;19.60;71.91;102234.06;20944120;28;20616;-61
2023/06/06 10:09:43;;;;;;;;;;;;;;;19.87;70.88;102234.59;20958811;28;19998;-61
2023/06/06 10:20:06;;;;;;;;;;;;;;;19.99;69.82;102244.53;20977229;28;20324;-61
2023/06/06 10:30:34;;;;;;;;;;;;;;;20.00;70.27;102240.97;20975916;28;19924;-61
2023/06/06 10:40:58;;;;;;;;;;;;;;;20.23;68.68;102227.66;20972534;28;19958;-61
2023/06/06 10:51:25;;;;;;;;;;;;;;;20.35;68.95;102232.31;20961542;28;19931;-61
2023/06/06 11:01:47;;;;;;;;;;;;;;;20.60;66.77;102217.03;20993202;28;19924;-60
2023/06/06 11:12:15;;;;;;;;;;;;;;;20.78;66.66;102216.16;21003107;28;19947;-60
2023/06/06 11:22:48;;;;;;;;;;;;;;;20.75;65.96;102216.28;20990818;28;19928;-61
2023/06/06 11:33:11;;;;;;;;;;;;;;;20.89;64.73;102223.50;20995961;28;19924;-62
2023/06/06 11:43:33;;;;;;;;;;;;;;;21.04;65.71;102201.69;20971880;28;19925;-60
2023/06/06 11:53:55;;;;;;;;;;;;;;;21.14;65.35;102207.31;20977791;28;20015;-61
2023/06/06 12:04:20;;;;;;;;;;;;;;;20.99;64.18;102207.19;20955774;28;19928;-61
2023/06/06 12:14:41;;;;;;;;;;;;;;;20.68;65.44;102211.41;20982333;28;19963;-60
2023/06/06 12:25:04;;;;;;;;;;;;;;;20.27;66.32;102212.59;20968768;28;19924;-61
2023/06/06 12:35:26;;;;;;;;;;;;;;;20.00;65.59;102210.31;20945991;28;19970;-61
2023/06/06 12:45:48;;;;;;;;;;;;;;;19.95;65.92;102214.06;20979328;28;19925;-61
2023/06/06 12:56:09;;;;;;;;;;;;;;;19.96;66.83;102208.72;20977849;28;19967;-61
2023/06/06 13:06:31;;;;;;;;;;;;;;;19.73;66.64;102213.34;20965912;28;19928;-61
2023/06/06 13:16:53;;;;;;;;;;;;;;;19.76;66.38;102210.59;20982908;28;19929;-61
2023/06/06 13:27:32;;;;;;;;;;;;;;;19.69;66.58;102211.78;20959016;28;19925;-61
2023/06/06 13:37:54;;;;;;;;;;;;;;;19.61;66.68;102204.25;20976987;28;20464;-61
2023/06/06 13:48:16;;;;;;;;;;;;;;;19.63;66.07;102193.69;20954612;28;19931;-61
2023/06/06 13:58:40;;;;;;;;;;;;;;;19.57;65.92;102196.59;20977803;28;19950;-61
2023/06/06 14:09:02;;;;;;;;;;;;;;;19.44;66.17;102192.81;20957782;28;20382;-61
2023/06/06 14:19:37;;;;;;;;;;;;;;;19.42;66.13;102190.25;20956640;28;19932;-61
2023/06/06 14:29:59;;;;;;;;;;;;;;;19.26;65.51;102183.09;20975692;28;20397;-61
2023/06/06 14:40:21;;;;;;;;;;;;;;;19.19;66.34;102187.78;20948745;28;20039;-61
2023/06/06 14:50:42;;;;;;;;;;;;;;;19.06;65.05;102187.44;20958015;28;19928;-61
2023/06/06 15:01:04;;;;;;;;;;;;;;;19.12;66.39;102191.56;20977246;28;19931;-61
2023/06/06 15:11:28;;;;;;;;;;;;;;;19.02;66.29;102191.13;20956286;28;19928;-61
2023/06/06 15:21:50;;;;;;;;;;;;;;;19.02;66.87;102180.63;20954490;28;19925;-61
2023/06/06 15:32:13;;;;;;;;;;;;;;;19.00;66.35;102171.97;20960590;28;19924;-60
2023/06/06 15:42:35;;;;;;;;;;;;;;;18.89;66.49;102163.72;20945912;28;19924;-61
2023/06/06 15:52:57;;;;;;;;;;;;;;;18.95;66.77;102162.59;20985882;28;19928;-60
2023/06/06 16:03:18;;;;;;;;;;;;;;;19.08;66.87;102152.41;20996990;28;19931;-60
2023/06/06 16:13:40;;;;;;;;;;;;;;;19.16;65.94;102150.28;20974640;28;19924;-60
2023/06/06 16:24:03;;;;;;;;;;;;;;;19.65;64.85;102160.34;20964950;28;20359;-60
2023/06/06 16:34:25;;;;;;;;;;;;;;;19.81;64.95;102150.81;20966775;28;19931;-60
2023/06/06 16:44:47;;;;;;;;;;;;;;;19.89;64.46;102154.75;20970154;28;19931;-60
2023/06/06 16:55:09;;;;;;;;;;;;;;;19.66;64.90;102167.28;20962497;28;19924;-60
2023/06/06 17:05:36;;;;;;;;;;;;;;;19.54;65.14;102173.09;20981794;28;19928;-60
2023/06/06 17:15:58;;;;;;;;;;;;;;;19.41;65.33;102164.91;20978318;28;19939;-60
2023/06/06 17:26:20;;;;;;;;;;;;;;;19.10;66.25;102174.19;20962449;28;19928;-60
2023/06/06 17:36:43;;;;;;;;;;;;;;;18.88;67.20;102177.72;20977458;28;19928;-60
2023/06/06 17:47:05;;;;;;;;;;;;;;;18.51;67.29;102184.59;20975400;28;19931;-60
2023/06/06 17:57:27;;;;;;;;;;;;;;;18.43;67.57;102184.91;20971226;28;19924;-60
2023/06/06 18:07:49;;;;;;;;;;;;;;;18.15;68.57;102192.13;20975185;28;19956;-60
2023/06/06 18:18:14;;;;;;;10.40;4.00;;;;;;;17.83;69.01;102192.53;20963754;28;19935;-60
2023/06/06 18:28:37;;;;;;;12.00;3.90;;;;;;;17.66;69.48;102194.91;20968293;28;20045;-60
2023/06/06 18:38:59;;;;;;;14.20;4.15;;;;;;;17.29;69.86;102195.38;20954871;28;20124;-60
2023/06/06 18:49:20;;;;;;;;;;;;;;;17.14;70.49;102192.47;20946829;28;20041;-60
2023/06/06 18:59:42;;;;;;;;;;;;;;;17.00;70.97;102209.50;20970908;28;20299;-60
2023/06/06 19:10:05;;;;;;;;;;;;;;;16.75;71.69;102219.06;20973113;28;19920;-60
2023/06/06 19:20:27;;;;;;;;;;;;;;;16.48;72.17;102227.78;20978652;28;19926;-60
2023/06/06 19:30:48;;;;;;;;;;;;;;;16.33;72.34;102223.03;20967594;28;19920;-60
2023/06/06 19:41:11;;;;;;;;;;;;;;;16.13;72.83;102232.38;20973945;28;19921;-60
2023/06/06 19:51:33;;;;;;;;;;;;;;;16.02;73.41;102243.16;20972817;28;20303;-60
2023/06/06 20:01:54;;;;;;;;;;;;;;;15.83;74.18;102255.03;20969960;28;19920;-60
2023/06/06 20:12:16;;;;;;;;;;;;;;;15.68;75.38;102271.13;20994062;28;20010;-60
2023/06/06 20:22:39;;;;;;;;;;;;;;;15.51;75.14;102265.53;20957528;28;19924;-60
2023/06/06 20:33:03;;;;;;;;;;;;;;;15.38;75.45;102262.38;20984279;28;19925;-61
2023/06/06 20:43:25;;;;;;;;;;;;;;;15.34;76.02;102265.09;20973981;28;19924;-58
2023/06/06 20:53:46;;;;;;;;;;;;;;;15.15;76.35;102272.53;20965944;28;19920;-59
2023/06/06 21:04:08;;;;;;;;;;;;;;;14.86;76.37;102273.25;20976667;28;19920;-59
2023/06/06 21:14:30;;;;;;;;;;;;;;;14.82;77.07;102287.25;20970578;28;20299;-59
2023/06/06 21:24:52;;;;;;;;;;;;;;;14.83;76.92;102282.91;20960587;28;20279;-60
2023/06/06 21:35:13;;;;;;;;;;;;;;;14.67;77.85;102277.19;20965246;28;20263;-59
2023/06/06 21:45:35;;;;;;;;;;;;;;;14.54;77.51;102270.56;20960232;28;19927;-60
2023/06/06 21:55:57;;;;;;;;;;;;;;;14.43;78.88;102277.75;20978408;28;19920;-59
2023/06/06 22:06:18;;;;;;;;;;;;;;;14.35;78.22;102290.09;20974000;28;19928;-60
2023/06/06 22:16:39;;;;;;;;;;;;;;;14.27;78.72;102286.81;20979028;28;19928;-60
2023/06/06 22:27:01;;;;;;;;;;;;;;;13.94;79.89;102267.53;20960845;28;19951;-60
2023/06/06 22:37:24;;;;;;;;;;;;;;;13.95;80.34;102273.59;20976675;28;19935;-60
2023/06/06 22:47:46;;;;;;;;;;;;;;;13.88;80.16;102272.00;20956039;28;19927;-59
2023/06/06 22:58:07;;;;;;;;;;;;;;;13.78;80.12;102270.47;20971135;28;19921;-59
2023/06/06 23:08:29;;;;;;;;;;;;;;;13.76;80.72;102261.81;20974126;28;19925;-59
2023/06/06 23:18:51;;;;;;;;;;;;;;;13.68;81.14;102263.75;20976554;28;19951;-59
2023/06/06 23:29:12;;;;;;;;;;;;;;;13.50;81.43;102266.66;20981618;28;20018;-59
2023/06/06 23:39:34;;;;;;;;;;;;;;;13.39;81.99;102271.22;20977578;28;19928;-59
2023/06/06 23:49:55;;;;;;;;;;;;;;;13.43;82.05;102281.53;20975227;28;19927;-59
